createdAt,value
2019-03-18T00:01:44.903Z,70.90
2019-03-18T00:04:18.099Z,70.48
2019-03-18T00:06:48.743Z,70.66
2019-03-18T00:09:19.066Z,71.60
2019-03-18T00:11:49.610Z,71.22
2019-03-18T00:14:20.771Z,69.87
2019-03-18T00:16:51.861Z,70.27
2019-03-18T00:19:22.891Z,71.79
2019-03-18T00:21:53.162Z,73.21
2019-03-18T00:24:23.146Z,72.37
2019-03-18T00:26:53.701Z,72.42
2019-03-18T00:29:23.833Z,71.39
2019-03-18T00:31:57.498Z,71.12
2019-03-18T00:34:27.818Z,72.48
2019-03-18T00:36:58.145Z,72.14
2019-03-18T00:39:35.100Z,70.86
2019-03-18T00:42:09.632Z,71.56
2019-03-18T00:44:40.002Z,72.22
2019-03-18T00:47:10.605Z,72.78
2019-03-18T00:49:40.946Z,73.73
2019-03-18T00:52:14.426Z,73.73
2019-03-18T00:54:45.313Z,74.51
2019-03-18T00:57:15.661Z,73.27
2019-03-18T00:59:46.754Z,74.80
2019-03-18T01:02:18.093Z,75.18
2019-03-18T01:04:49.513Z,74.47
2019-03-18T01:07:19.777Z,74.38
2019-03-18T01:09:49.786Z,73.92
2019-03-18T01:12:20.445Z,74.43
2019-03-18T01:14:50.840Z,74.24
2019-03-18T01:17:20.823Z,74.93
2019-03-18T01:19:51.283Z,75.69
2019-03-18T01:22:25.168Z,75.45
2019-03-18T01:24:55.843Z,73.57
2019-03-18T01:27:25.977Z,72.33
2019-03-18T01:29:57.037Z,72.59
2019-03-18T01:32:27.279Z,71.92
2019-03-18T01:34:57.942Z,71.94
2019-03-18T01:37:29.434Z,71.14
2019-03-18T01:40:02.752Z,71.97
2019-03-18T01:42:34.549Z,72.43
2019-03-18T01:45:07.673Z,72.45
2019-03-18T01:47:38.586Z,72.99
2019-03-18T01:50:09.113Z,74.03
2019-03-18T01:52:39.067Z,74.37
2019-03-18T01:55:09.920Z,74.50
2019-03-18T01:57:40.085Z,73.98
2019-03-18T02:00:10.832Z,73.16
2019-03-18T02:02:41.748Z,73.72
2019-03-18T02:05:12.239Z,76.02
2019-03-18T02:07:42.215Z,74.63
2019-03-18T02:10:12.379Z,74.19
2019-03-18T02:12:43.474Z,73.90
2019-03-18T02:15:13.339Z,73.71
2019-03-18T02:17:43.496Z,74.68
2019-03-18T02:20:14.744Z,74.12
2019-03-18T02:22:44.840Z,73.88
2019-03-18T02:25:15.208Z,75.47
2019-03-18T02:27:45.376Z,75.28
2019-03-18T02:30:15.840Z,76.39
2019-03-18T02:32:45.680Z,75.72
2019-03-18T02:35:16.380Z,76.71
2019-03-18T02:37:47.783Z,77.12
2019-03-18T02:40:18.203Z,76.73
2019-03-18T02:42:49.144Z,76.63
2019-03-18T02:45:19.629Z,76.55
2019-03-18T02:47:49.733Z,76.74
2019-03-18T02:50:19.518Z,76.68
2019-03-18T02:52:50.560Z,75.43
2019-03-18T02:55:20.699Z,75.46
2019-03-18T02:57:50.992Z,76.49
2019-03-18T03:00:21.277Z,75.71
2019-03-18T03:02:52.967Z,75.49
2019-03-18T03:05:23.902Z,75.01
2019-03-18T03:07:54.674Z,76.40
2019-03-18T03:10:24.958Z,77.31
2019-03-18T03:12:55.953Z,78.08
2019-03-18T03:15:30.047Z,78.12
2019-03-18T03:18:05.244Z,78.66
2019-03-18T03:20:35.827Z,77.95
2019-03-18T03:23:07.518Z,77.73
2019-03-18T03:25:37.465Z,77.62
2019-03-18T03:28:07.467Z,76.80
2019-03-18T03:30:37.749Z,76.40
2019-03-18T03:33:07.616Z,77.50
2019-03-18T03:35:37.458Z,77.63
2019-03-18T03:38:07.612Z,76.30
2019-03-18T03:40:37.883Z,76.83
2019-03-18T03:43:08.504Z,75.91
2019-03-18T03:45:39.012Z,76.70
2019-03-18T03:48:09.401Z,75.57
2019-03-18T03:50:39.552Z,74.99
2019-03-18T03:53:09.197Z,75.82
2019-03-18T03:55:39.860Z,76.09
2019-03-18T03:58:09.717Z,76.31
2019-03-18T04:00:39.951Z,76.70
2019-03-18T04:03:10.477Z,77.05
2019-03-18T04:05:40.784Z,75.69
2019-03-18T04:08:10.647Z,75.06
2019-03-18T04:10:40.595Z,77.11
2019-03-18T04:13:11.941Z,76.40
2019-03-18T04:15:41.990Z,76.25
2019-03-18T04:18:11.929Z,75.05
2019-03-18T04:20:42.129Z,75.50
2019-03-18T04:23:11.849Z,73.90
2019-03-18T04:25:42.039Z,72.60
2019-03-18T04:28:12.359Z,72.48
2019-03-18T04:30:42.112Z,71.66
2019-03-18T04:33:12.110Z,70.77
2019-03-18T04:35:42.712Z,72.66
2019-03-18T04:38:12.985Z,70.88
2019-03-18T04:40:43.196Z,72.06
2019-03-18T04:43:13.153Z,72.25
2019-03-18T04:45:42.745Z,74.10
2019-03-18T04:48:12.723Z,74.32
2019-03-18T04:50:43.714Z,75.51
2019-03-18T04:53:15.508Z,76.10
2019-03-18T04:55:45.888Z,76.82
2019-03-18T04:58:15.631Z,77.38
2019-03-18T05:00:45.697Z,77.00
2019-03-18T05:03:16.923Z,76.22
2019-03-18T05:05:47.938Z,75.30
2019-03-18T05:08:18.035Z,75.67
2019-03-18T05:10:48.639Z,74.50
2019-03-18T05:13:19.054Z,74.06
2019-03-18T05:15:49.034Z,74.11
2019-03-18T05:18:19.092Z,73.37
2019-03-18T05:20:49.850Z,71.39
2019-03-18T05:23:20.229Z,72.20
2019-03-18T05:25:50.418Z,72.89
2019-03-18T05:28:20.495Z,72.51
2019-03-18T05:30:50.492Z,72.51
2019-03-18T05:33:20.306Z,72.89
2019-03-18T05:35:50.590Z,73.36
2019-03-18T05:38:20.676Z,73.18
2019-03-18T05:40:50.935Z,73.99
2019-03-18T05:43:20.861Z,74.20
2019-03-18T05:45:50.978Z,74.91
2019-03-18T05:48:20.993Z,75.12
2019-03-18T05:50:50.935Z,75.47
2019-03-18T05:53:21.592Z,75.29
2019-03-18T05:55:51.698Z,75.45
2019-03-18T05:58:21.835Z,75.61
2019-03-18T06:00:52.743Z,74.96
2019-03-18T06:03:22.890Z,75.27
2019-03-18T06:05:55.590Z,75.06
2019-03-18T06:08:26.717Z,74.28
2019-03-18T06:10:56.715Z,74.40
2019-03-18T06:13:26.668Z,74.66
2019-03-18T06:15:56.723Z,74.53
2019-03-18T06:18:27.115Z,74.10
2019-03-18T06:20:57.179Z,73.88
2019-03-18T06:23:28.100Z,73.74
2019-03-18T06:25:58.677Z,73.23
2019-03-18T06:28:29.231Z,73.44
2019-03-18T06:30:59.169Z,73.37
2019-03-18T06:33:29.337Z,72.84
2019-03-18T06:35:59.394Z,73.08
2019-03-18T06:38:29.368Z,73.19
2019-03-18T06:41:00.032Z,72.64
2019-03-18T06:43:30.344Z,72.84
2019-03-18T06:46:00.438Z,72.94
2019-03-18T06:48:31.033Z,72.96
2019-03-18T06:51:01.983Z,73.07
2019-03-18T06:53:32.020Z,72.80
2019-03-18T06:56:05.142Z,72.61
2019-03-18T06:58:35.599Z,72.45
2019-03-18T07:01:06.069Z,72.54
2019-03-18T07:03:36.241Z,71.79
2019-03-18T07:06:09.618Z,71.49
2019-03-18T07:08:39.531Z,71.06
2019-03-18T07:11:10.132Z,70.85
2019-03-18T07:13:40.110Z,70.93
2019-03-18T07:16:11.291Z,71.01
2019-03-18T07:18:41.851Z,71.21
2019-03-18T07:21:22.018Z,71.03
2019-03-18T07:23:52.699Z,70.88
2019-03-18T07:26:22.849Z,70.41
2019-03-18T07:28:52.751Z,69.75
2019-03-18T07:31:25.151Z,69.71
2019-03-18T07:33:54.786Z,69.36
2019-03-18T07:36:24.374Z,69.07
2019-03-18T07:38:54.458Z,68.74
2019-03-18T07:41:24.469Z,68.40
2019-03-18T07:43:57.376Z,67.23
2019-03-18T07:46:27.114Z,67.69
2019-03-18T07:48:56.744Z,67.51
2019-03-18T07:51:26.288Z,66.83
2019-03-18T07:53:56.885Z,66.91
2019-03-18T07:56:26.417Z,67.13
2019-03-18T07:58:56.115Z,67.56
2019-03-18T08:01:26.369Z,68.28
2019-03-18T08:03:56.125Z,68.18
2019-03-18T08:06:26.191Z,67.54
2019-03-18T08:08:56.445Z,67.74
2019-03-18T08:11:25.982Z,67.89
2019-03-18T08:13:55.961Z,67.69
2019-03-18T08:16:26.183Z,67.12
2019-03-18T08:18:55.820Z,67.02
2019-03-18T08:21:25.562Z,66.74
2019-03-18T08:23:56.445Z,66.36
2019-03-18T08:26:27.303Z,65.98
2019-03-18T08:28:57.198Z,66.16
2019-03-18T08:31:26.819Z,66.67
2019-03-18T08:33:56.582Z,66.57
2019-03-18T08:36:26.796Z,66.42
2019-03-18T08:38:56.606Z,66.36
2019-03-18T08:41:26.408Z,66.23
2019-03-18T08:43:57.059Z,65.87
2019-03-18T08:46:26.821Z,65.33
2019-03-18T08:48:57.039Z,64.99
2019-03-18T08:51:27.381Z,64.61
2019-03-18T08:53:57.465Z,63.39
2019-03-18T08:56:29.648Z,63.22
2019-03-18T08:58:59.781Z,63.60
2019-03-18T09:01:32.044Z,63.10
2019-03-18T09:04:01.234Z,63.45
2019-03-18T09:06:32.408Z,63.20
2019-03-18T09:09:04.490Z,63.39
2019-03-18T09:11:34.282Z,62.26
2019-03-18T09:14:09.720Z,61.80
2019-03-18T09:16:40.341Z,60.87
2019-03-18T09:19:11.210Z,60.50
2019-03-18T09:21:42.361Z,59.66
2019-03-18T09:24:12.981Z,59.35
2019-03-18T09:26:42.512Z,59.17
2019-03-18T09:29:18.098Z,58.56
2019-03-18T09:31:47.680Z,58.41
2019-03-18T09:34:17.362Z,57.20
2019-03-18T09:36:47.471Z,57.81
2019-03-18T09:39:17.746Z,58.10
2019-03-18T09:41:47.768Z,57.65
2019-03-18T09:44:17.642Z,57.15
2019-03-18T09:46:47.241Z,57.76
2019-03-18T09:49:21.902Z,56.75
2019-03-18T09:51:49.096Z,56.73
2019-03-18T09:54:19.319Z,55.75
2019-03-18T09:56:49.712Z,54.63
2019-03-18T09:59:19.787Z,54.77
2019-03-18T10:01:49.505Z,54.70
2019-03-18T10:04:19.458Z,55.39
2019-03-18T10:06:49.420Z,55.26
2019-03-18T10:09:20.982Z,54.89
2019-03-18T10:11:50.983Z,55.10
2019-03-18T10:14:20.633Z,54.21
2019-03-18T10:16:50.984Z,55.90
2019-03-18T10:19:32.763Z,55.56
2019-03-18T10:21:54.600Z,55.36
2019-03-18T10:24:25.109Z,55.16
2019-03-18T10:26:55.640Z,56.30
2019-03-18T10:29:25.497Z,56.24
2019-03-18T10:31:55.558Z,55.93
2019-03-18T10:34:25.484Z,56.50
2019-03-18T10:36:56.336Z,56.42
2019-03-18T10:39:26.940Z,56.69
2019-03-18T10:41:57.014Z,57.18
2019-03-18T10:44:26.916Z,56.86
2019-03-18T10:46:58.220Z,56.85
2019-03-18T10:49:28.062Z,56.20
2019-03-18T10:51:57.941Z,57.43
2019-03-18T10:54:31.216Z,57.58
2019-03-18T10:56:59.732Z,56.49
2019-03-18T10:59:29.458Z,56.69
2019-03-18T11:01:58.980Z,56.14
2019-03-18T11:04:29.281Z,56.16
2019-03-18T11:06:59.378Z,55.49
2019-03-18T11:09:29.063Z,54.40
2019-03-18T11:11:58.800Z,54.71
2019-03-18T11:14:28.896Z,55.13
2019-03-18T11:16:58.987Z,54.78
2019-03-18T11:19:28.818Z,54.57
2019-03-18T11:22:04.208Z,55.11
2019-03-18T11:24:35.329Z,54.42
2019-03-18T11:27:06.494Z,53.02
2019-03-18T11:29:42.509Z,51.43
2019-03-18T11:32:15.409Z,51.02
2019-03-18T11:34:46.076Z,49.19
2019-03-18T11:37:16.523Z,47.68
2019-03-18T11:39:46.348Z,46.54
2019-03-18T11:42:16.411Z,45.01
2019-03-18T11:44:50.147Z,44.06
2019-03-18T11:47:20.288Z,43.64
2019-03-18T11:49:50.007Z,42.10
2019-03-18T11:52:20.034Z,41.04
2019-03-18T11:54:49.792Z,40.33
2019-03-18T11:57:19.396Z,39.36
2019-03-18T11:59:51.023Z,40.53
2019-03-18T12:02:27.871Z,42.24
2019-03-18T12:04:58.753Z,42.60
2019-03-18T12:07:29.969Z,42.40
2019-03-18T12:10:02.604Z,43.76
2019-03-18T12:12:32.244Z,41.67
2019-03-18T12:15:05.976Z,42.51
2019-03-18T12:17:35.728Z,42.13
2019-03-18T12:20:09.594Z,43.10
2019-03-18T12:22:39.677Z,44.81
2019-03-18T12:25:10.969Z,44.36
2019-03-18T12:27:40.730Z,42.95
2019-03-18T12:30:19.743Z,42.98
2019-03-18T12:32:50.164Z,41.57
2019-03-18T12:35:20.452Z,40.76
2019-03-18T12:37:50.321Z,40.84
2019-03-18T12:40:23.073Z,41.07
2019-03-18T12:42:52.822Z,41.19
2019-03-18T12:45:22.858Z,42.13
2019-03-18T12:47:53.122Z,41.85
2019-03-18T12:50:38.570Z,40.17
2019-03-18T12:52:55.228Z,39.00
2019-03-18T12:55:25.190Z,38.85
2019-03-18T12:57:55.588Z,37.95
2019-03-18T13:00:25.755Z,35.97
2019-03-18T13:02:55.603Z,35.06
2019-03-18T13:05:26.888Z,33.33
2019-03-18T13:07:56.927Z,32.57
2019-03-18T13:10:27.034Z,31.01
2019-03-18T13:13:03.581Z,30.57
2019-03-18T13:15:33.814Z,29.81
2019-03-18T13:18:06.835Z,31.20
2019-03-18T13:20:39.658Z,30.65
2019-03-18T13:23:09.664Z,30.78
2019-03-18T13:25:40.109Z,32.09
2019-03-18T13:28:13.861Z,32.25
2019-03-18T13:31:04.175Z,32.06
2019-03-18T13:33:45.036Z,32.21
2019-03-18T13:36:17.379Z,31.29
2019-03-18T13:38:47.729Z,30.12
2019-03-18T13:41:17.492Z,29.92
2019-03-18T13:44:00.667Z,29.64
2019-03-18T13:46:30.960Z,29.96
2019-03-18T13:49:00.716Z,28.57
2019-03-18T13:51:30.739Z,28.03
2019-03-18T13:54:00.506Z,30.01
2019-03-18T13:56:30.524Z,28.78
2019-03-18T13:59:04.897Z,29.02
2019-03-18T14:01:31.941Z,30.12
2019-03-18T14:04:02.472Z,34.74
2019-03-18T14:06:32.647Z,38.40
2019-03-18T14:09:02.901Z,41.67
2019-03-18T14:11:32.838Z,43.30
2019-03-18T14:14:03.446Z,43.64
2019-03-18T14:16:33.747Z,45.27
2019-03-18T14:19:06.706Z,47.37
2019-03-18T14:21:36.701Z,49.20
2019-03-18T14:24:09.645Z,50.54
2019-03-18T14:26:39.754Z,52.54
2019-03-18T14:29:10.549Z,51.19
2019-03-18T14:31:43.908Z,51.22
2019-03-18T14:34:15.519Z,51.71
2019-03-18T14:36:45.578Z,51.13
2019-03-18T14:39:17.891Z,52.80
2019-03-18T14:41:48.223Z,52.17
2019-03-18T14:44:17.921Z,53.23
2019-03-18T14:46:48.283Z,52.06
2019-03-18T14:49:20.079Z,49.01
2019-03-18T14:51:54.946Z,46.93
2019-03-18T14:54:29.813Z,42.47
2019-03-18T14:56:59.871Z,40.72
2019-03-18T14:59:31.001Z,38.47
2019-03-18T15:02:10.762Z,36.45
2019-03-18T15:04:40.248Z,35.14
2019-03-18T15:07:12.593Z,35.12
2019-03-18T15:09:44.676Z,33.21
2019-03-18T15:12:16.844Z,30.07
2019-03-18T15:14:47.343Z,27.41
2019-03-18T15:17:18.338Z,28.16
2019-03-18T15:19:49.904Z,26.41
2019-03-18T15:22:20.820Z,24.53
2019-03-18T15:24:52.943Z,24.08
2019-03-18T15:27:26.778Z,23.06
2019-03-18T15:29:57.636Z,22.07
2019-03-18T15:32:27.660Z,21.47
2019-03-18T15:34:59.039Z,22.33
2019-03-18T15:37:30.442Z,22.59
2019-03-18T15:40:00.726Z,22.59
2019-03-18T15:42:31.437Z,22.76
2019-03-18T15:45:03.453Z,22.90
2019-03-18T15:47:35.787Z,25.21
2019-03-18T15:50:12.881Z,25.65
2019-03-18T15:52:42.283Z,28.99
2019-03-18T15:55:13.562Z,35.88
2019-03-18T15:57:47.796Z,36.60
2019-03-18T16:00:23.210Z,39.16
2019-03-18T16:02:53.351Z,40.50
2019-03-18T16:05:23.867Z,41.52
2019-03-18T16:07:55.124Z,42.22
2019-03-18T16:10:25.564Z,43.43
2019-03-18T16:12:56.278Z,44.16
2019-03-18T16:15:26.973Z,42.02
2019-03-18T16:17:58.383Z,39.37
2019-03-18T16:20:29.042Z,35.54
2019-03-18T16:22:59.368Z,32.20
2019-03-18T16:25:30.023Z,30.13
2019-03-18T16:28:00.319Z,28.82
2019-03-18T16:30:39.704Z,28.89
2019-03-18T16:33:17.219Z,29.31
2019-03-18T16:35:47.849Z,30.51
2019-03-18T16:38:18.209Z,31.46
2019-03-18T16:40:48.921Z,32.23
2019-03-18T16:43:22.510Z,33.84
2019-03-18T16:45:52.935Z,35.73
2019-03-18T16:48:28.774Z,40.31
2019-03-18T16:51:00.399Z,41.49
2019-03-18T16:53:31.081Z,45.42
2019-03-18T16:56:05.643Z,44.86
2019-03-18T16:58:36.140Z,46.49
2019-03-18T17:01:11.485Z,47.82
2019-03-18T17:03:41.931Z,48.41
2019-03-18T17:06:15.468Z,49.64
2019-03-18T17:08:48.389Z,51.18
2019-03-18T17:11:18.842Z,51.28
2019-03-18T17:13:49.642Z,51.31
2019-03-18T17:16:21.773Z,52.88
2019-03-18T17:18:52.252Z,53.00
2019-03-18T17:21:22.624Z,53.02
2019-03-18T17:23:53.256Z,52.44
2019-03-18T17:26:23.839Z,52.69
2019-03-18T17:28:54.212Z,52.30
2019-03-18T17:31:31.808Z,52.02
2019-03-18T17:34:03.531Z,50.62
2019-03-18T17:36:33.911Z,51.68
2019-03-18T17:39:04.502Z,50.59
2019-03-18T17:41:34.813Z,50.20
2019-03-18T17:44:07.711Z,49.96
2019-03-18T17:46:40.310Z,50.85
2019-03-18T17:49:10.629Z,50.26
2019-03-18T17:51:43.699Z,50.33
2019-03-18T17:54:17.076Z,50.14
2019-03-18T17:56:47.863Z,49.09
2019-03-18T17:59:20.392Z,49.94
2019-03-18T18:01:50.919Z,50.58
2019-03-18T18:04:25.465Z,52.06
2019-03-18T18:06:56.302Z,52.89
2019-03-18T18:09:27.301Z,53.73
2019-03-18T18:12:00.765Z,54.61
2019-03-18T18:14:34.229Z,54.66
2019-03-18T18:17:07.878Z,55.29
2019-03-18T18:19:38.585Z,56.01
2019-03-18T18:22:16.211Z,56.10
2019-03-18T18:24:56.046Z,56.79
2019-03-18T18:27:26.678Z,56.85
2019-03-18T18:29:57.114Z,57.69
2019-03-18T18:32:32.941Z,58.35
2019-03-18T18:35:04.584Z,58.40
2019-03-18T18:37:36.093Z,58.89
2019-03-18T18:40:08.558Z,58.71
2019-03-18T18:42:40.267Z,59.43
2019-03-18T18:45:14.240Z,59.21
2019-03-18T18:47:46.957Z,59.28
2019-03-18T18:50:17.470Z,59.30
2019-03-18T18:52:49.629Z,59.20
2019-03-18T18:55:20.192Z,58.94
2019-03-18T18:57:50.390Z,58.34
2019-03-18T19:00:29.300Z,57.53
2019-03-18T19:03:00.725Z,57.52
2019-03-18T19:05:36.654Z,56.83
2019-03-18T19:08:11.210Z,56.36
2019-03-18T19:10:45.708Z,55.61
2019-03-18T19:13:22.996Z,54.99
2019-03-18T19:15:55.968Z,54.94
2019-03-18T19:18:37.714Z,54.99
2019-03-18T19:21:01.989Z,54.05
2019-03-18T19:23:38.031Z,54.81
2019-03-18T19:26:19.264Z,54.52
2019-03-18T19:28:52.850Z,56.60
2019-03-18T19:31:37.777Z,55.96
2019-03-18T19:34:44.260Z,56.66
2019-03-18T19:37:17.226Z,56.98
2019-03-18T19:39:47.661Z,57.25
2019-03-18T19:43:04.974Z,57.25
2019-03-18T19:45:36.306Z,57.05
2019-03-18T19:48:12.285Z,56.80
2019-03-18T19:50:45.378Z,57.34
2019-03-18T19:53:17.295Z,58.56
2019-03-18T19:55:52.734Z,58.73
2019-03-18T19:58:22.804Z,59.21
2019-03-18T20:00:53.921Z,59.58
2019-03-18T20:03:28.318Z,58.11
2019-03-18T20:05:58.960Z,59.20
2019-03-18T20:08:38.995Z,60.04
2019-03-18T20:14:44.961Z,59.35
2019-03-18T20:17:16.219Z,59.19
2019-03-18T20:19:46.852Z,59.23
2019-03-18T20:23:05.247Z,58.03
2019-03-18T20:25:51.128Z,57.39
2019-03-18T20:28:25.179Z,57.24
2019-03-18T20:30:59.592Z,56.89
2019-03-18T20:33:29.878Z,57.41
2019-03-18T20:36:01.064Z,56.95
2019-03-18T20:38:39.550Z,57.06
2019-03-18T20:41:10.726Z,57.21
2019-03-18T20:43:41.927Z,58.27
2019-03-18T20:46:12.898Z,58.07
2019-03-18T20:49:30.286Z,58.04
2019-03-18T20:52:00.915Z,57.85
2019-03-18T20:54:34.527Z,57.28
2019-03-18T20:57:05.851Z,57.43
2019-03-18T20:59:39.215Z,57.07
2019-03-18T21:02:13.033Z,57.81
2019-03-18T21:04:43.920Z,58.82
2019-03-18T21:07:17.059Z,57.96
2019-03-18T21:09:50.472Z,57.58
2019-03-18T21:12:22.755Z,57.19
2019-03-18T21:14:54.386Z,57.37
2019-03-18T21:17:37.821Z,57.10
2019-03-18T21:20:12.069Z,57.34
2019-03-18T21:22:44.209Z,57.70
2019-03-18T21:25:20.986Z,59.94
2019-03-18T21:27:51.253Z,61.26
2019-03-18T21:30:22.081Z,61.25
2019-03-18T21:32:52.793Z,60.01
2019-03-18T21:35:23.566Z,59.12
2019-03-18T21:37:55.504Z,59.56
2019-03-18T21:40:25.630Z,61.44
2019-03-18T21:42:55.639Z,62.46
2019-03-18T21:45:26.883Z,63.96
2019-03-18T21:47:57.500Z,63.73
2019-03-18T21:50:27.528Z,64.21
2019-03-18T21:52:57.981Z,63.20
2019-03-18T21:55:28.299Z,62.17
2019-03-18T21:57:58.842Z,61.29
2019-03-18T22:00:29.238Z,61.38
2019-03-18T22:02:59.713Z,61.41
2019-03-18T22:05:29.434Z,60.96
2019-03-18T22:07:58.990Z,60.94
2019-03-18T22:10:32.962Z,61.48
2019-03-18T22:13:05.452Z,60.62
2019-03-18T22:15:35.058Z,60.25
2019-03-18T22:18:08.022Z,62.51
2019-03-18T22:20:37.866Z,63.60
2019-03-18T22:23:07.862Z,62.75
2019-03-18T22:25:37.918Z,61.41
2019-03-18T22:28:07.647Z,60.92
2019-03-18T22:30:37.477Z,61.10
2019-03-18T22:33:07.505Z,62.57
2019-03-18T22:35:37.438Z,61.77
2019-03-18T22:38:07.354Z,61.54
2019-03-18T22:40:37.889Z,60.99
2019-03-18T22:43:07.534Z,60.68
2019-03-18T22:45:38.203Z,60.46
2019-03-18T22:48:10.434Z,60.55
2019-03-18T22:50:40.480Z,59.76
2019-03-18T22:53:10.156Z,59.65
2019-03-18T22:55:39.838Z,59.53
2019-03-18T22:58:10.134Z,59.41
2019-03-18T23:01:06.215Z,59.64
2019-03-18T23:03:36.745Z,59.27
2019-03-18T23:06:24.900Z,59.99
2019-03-18T23:08:58.476Z,60.85
2019-03-18T23:11:30.100Z,62.47
2019-03-18T23:14:00.819Z,62.21
2019-03-18T23:16:35.924Z,61.35
2019-03-18T23:19:08.323Z,64.36
2019-03-18T23:21:38.561Z,65.79
2019-03-18T23:24:08.490Z,66.93
2019-03-18T23:26:38.073Z,65.21
2019-03-18T23:29:08.189Z,63.40
2019-03-18T23:31:37.902Z,62.98
2019-03-18T23:34:07.419Z,62.23
2019-03-18T23:36:37.124Z,62.19
2019-03-18T23:39:09.785Z,61.93
2019-03-18T23:41:39.787Z,61.57
2019-03-18T23:44:09.359Z,61.48
2019-03-18T23:46:39.627Z,61.18
2019-03-18T23:49:09.680Z,61.36
2019-03-18T23:51:39.532Z,61.30
2019-03-18T23:54:10.355Z,61.43
2019-03-18T23:56:40.070Z,61.69
2019-03-18T23:59:09.617Z,62.39
